sensor_id;sensor_type;location;lat;lon;timestamp;P1;durP1;ratioP1;P2;durP2;ratioP2
2850;SDS011;1433;49.976;8.342;2022-11-18T00:01:19;1.10;;;1.00;;
2850;SDS011;1433;49.976;8.342;2022-11-18T00:03:47;1.20;;;1.10;;
2850;SDS011;1433;49.976;8.342;2022-11-18T00:06:14;1.40;;;1.30;;
2850;SDS011;1433;49.976;8.342;2022-11-18T00:08:42;1.63;;;1.53;;
2850;SDS011;1433;49.976;8.342;2022-11-18T00:11:14;1.00;;;0.90;;
2850;SDS011;1433;49.976;8.342;2022-11-18T00:13:40;1.17;;;1.07;;
2850;SDS011;1433;49.976;8.342;2022-11-18T00:16:24;1.17;;;1.07;;
2850;SDS011;1433;49.976;8.342;2022-11-18T00:18:50;1.40;;;1.30;;
2850;SDS011;1433;49.976;8.342;2022-11-18T00:21:16;1.10;;;1.00;;
2850;SDS011;1433;49.976;8.342;2022-11-18T00:23:43;0.90;;;0.80;;
2850;SDS011;1433;49.976;8.342;2022-11-18T00:26:12;1.60;;;1.50;;
2850;SDS011;1433;49.976;8.342;2022-11-18T00:28:39;1.00;;;0.90;;
2850;SDS011;1433;49.976;8.342;2022-11-18T00:31:07;1.30;;;1.20;;
2850;SDS011;1433;49.976;8.342;2022-11-18T00:33:35;1.30;;;1.20;;
2850;SDS011;1433;49.976;8.342;2022-11-18T00:36:02;0.90;;;0.80;;
2850;SDS011;1433;49.976;8.342;2022-11-18T00:38:29;1.03;;;0.93;;
2850;SDS011;1433;49.976;8.342;2022-11-18T00:41:00;1.40;;;1.30;;
2850;SDS011;1433;49.976;8.342;2022-11-18T00:43:31;1.40;;;1.30;;
2850;SDS011;1433;49.976;8.342;2022-11-18T00:45:58;1.00;;;0.90;;
2850;SDS011;1433;49.976;8.342;2022-11-18T00:48:25;0.90;;;0.80;;
2850;SDS011;1433;49.976;8.342;2022-11-18T00:50:53;1.00;;;0.90;;
2850;SDS011;1433;49.976;8.342;2022-11-18T00:53:21;1.10;;;1.00;;
2850;SDS011;1433;49.976;8.342;2022-11-18T00:55:48;1.20;;;1.10;;
2850;SDS011;1433;49.976;8.342;2022-11-18T00:58:15;1.00;;;0.90;;
2850;SDS011;1433;49.976;8.342;2022-11-18T01:00:42;0.90;;;0.80;;
2850;SDS011;1433;49.976;8.342;2022-11-18T01:03:10;0.90;;;0.80;;
2850;SDS011;1433;49.976;8.342;2022-11-18T01:05:37;1.63;;;1.53;;
2850;SDS011;1433;49.976;8.342;2022-11-18T01:08:05;1.67;;;1.57;;
2850;SDS011;1433;49.976;8.342;2022-11-18T01:10:33;1.03;;;0.93;;
2850;SDS011;1433;49.976;8.342;2022-11-18T01:12:59;1.10;;;1.00;;
2850;SDS011;1433;49.976;8.342;2022-11-18T01:15:48;0.90;;;0.80;;
2850;SDS011;1433;49.976;8.342;2022-11-18T01:18:17;1.10;;;1.00;;
2850;SDS011;1433;49.976;8.342;2022-11-18T01:20:45;0.93;;;0.83;;
2850;SDS011;1433;49.976;8.342;2022-11-18T01:23:12;1.10;;;1.00;;
2850;SDS011;1433;49.976;8.342;2022-11-18T01:25:39;0.90;;;0.80;;
2850;SDS011;1433;49.976;8.342;2022-11-18T01:28:07;1.10;;;1.00;;
2850;SDS011;1433;49.976;8.342;2022-11-18T01:30:34;0.90;;;0.80;;
2850;SDS011;1433;49.976;8.342;2022-11-18T01:33:01;1.00;;;0.90;;
2850;SDS011;1433;49.976;8.342;2022-11-18T01:35:29;0.90;;;0.80;;
2850;SDS011;1433;49.976;8.342;2022-11-18T01:38:00;1.37;;;1.27;;
2850;SDS011;1433;49.976;8.342;2022-11-18T01:40:28;1.23;;;1.13;;
2850;SDS011;1433;49.976;8.342;2022-11-18T01:42:54;1.40;;;1.30;;
2850;SDS011;1433;49.976;8.342;2022-11-18T01:45:24;1.00;;;0.90;;
2850;SDS011;1433;49.976;8.342;2022-11-18T01:50:36;0.90;;;0.80;;
2850;SDS011;1433;49.976;8.342;2022-11-18T01:53:07;1.07;;;0.97;;
2850;SDS011;1433;49.976;8.342;2022-11-18T01:55:35;0.90;;;0.80;;
2850;SDS011;1433;49.976;8.342;2022-11-18T01:58:07;1.03;;;0.93;;
2850;SDS011;1433;49.976;8.342;2022-11-18T02:00:34;1.30;;;1.20;;
2850;SDS011;1433;49.976;8.342;2022-11-18T02:03:01;1.00;;;0.90;;
2850;SDS011;1433;49.976;8.342;2022-11-18T02:05:28;0.90;;;0.80;;
2850;SDS011;1433;49.976;8.342;2022-11-18T02:07:56;1.00;;;0.90;;
2850;SDS011;1433;49.976;8.342;2022-11-18T02:10:22;0.90;;;0.80;;
2850;SDS011;1433;49.976;8.342;2022-11-18T02:12:50;1.03;;;0.93;;
2850;SDS011;1433;49.976;8.342;2022-11-18T02:15:22;1.10;;;1.00;;
2850;SDS011;1433;49.976;8.342;2022-11-18T02:18:02;0.90;;;0.73;;
2850;SDS011;1433;49.976;8.342;2022-11-18T02:20:32;1.00;;;0.90;;
2850;SDS011;1433;49.976;8.342;2022-11-18T02:28:21;3.67;;;1.00;;
2850;SDS011;1433;49.976;8.342;2022-11-18T02:36:12;0.90;;;0.70;;
2850;SDS011;1433;49.976;8.342;2022-11-18T02:38:47;1.00;;;0.90;;
2850;SDS011;1433;49.976;8.342;2022-11-18T02:41:22;1.20;;;1.10;;
2850;SDS011;1433;49.976;8.342;2022-11-18T02:43:52;1.57;;;1.30;;
2850;SDS011;1433;49.976;8.342;2022-11-18T02:46:28;1.73;;;1.63;;
2850;SDS011;1433;49.976;8.342;2022-11-18T02:48:54;1.40;;;1.30;;
2850;SDS011;1433;49.976;8.342;2022-11-18T02:51:22;6.73;;;1.30;;
2850;SDS011;1433;49.976;8.342;2022-11-18T02:53:50;2.40;;;1.10;;
2850;SDS011;1433;49.976;8.342;2022-11-18T02:56:20;1.60;;;1.50;;
2850;SDS011;1433;49.976;8.342;2022-11-18T02:58:46;1.30;;;1.20;;
2850;SDS011;1433;49.976;8.342;2022-11-18T03:01:15;1.40;;;1.30;;
2850;SDS011;1433;49.976;8.342;2022-11-18T03:03:45;1.10;;;1.00;;
2850;SDS011;1433;49.976;8.342;2022-11-18T03:11:35;1.00;;;0.90;;
2850;SDS011;1433;49.976;8.342;2022-11-18T03:17:01;1.10;;;1.00;;
2850;SDS011;1433;49.976;8.342;2022-11-18T03:25:10;1.10;;;1.00;;
2850;SDS011;1433;49.976;8.342;2022-11-18T03:27:41;0.90;;;0.80;;
2850;SDS011;1433;49.976;8.342;2022-11-18T03:30:06;1.30;;;1.20;;
2850;SDS011;1433;49.976;8.342;2022-11-18T03:32:40;1.00;;;0.90;;
2850;SDS011;1433;49.976;8.342;2022-11-18T03:35:12;0.90;;;0.80;;
2850;SDS011;1433;49.976;8.342;2022-11-18T03:37:43;1.00;;;0.90;;
2850;SDS011;1433;49.976;8.342;2022-11-18T03:40:14;1.00;;;0.90;;
2850;SDS011;1433;49.976;8.342;2022-11-18T03:42:45;1.10;;;1.00;;
2850;SDS011;1433;49.976;8.342;2022-11-18T03:45:24;1.07;;;0.97;;
2850;SDS011;1433;49.976;8.342;2022-11-18T03:47:54;1.10;;;1.00;;
2850;SDS011;1433;49.976;8.342;2022-11-18T03:50:28;0.90;;;0.80;;
2850;SDS011;1433;49.976;8.342;2022-11-18T03:52:56;2.70;;;1.13;;
2850;SDS011;1433;49.976;8.342;2022-11-18T03:55:26;0.90;;;0.80;;
2850;SDS011;1433;49.976;8.342;2022-11-18T04:00:32;1.00;;;0.90;;
2850;SDS011;1433;49.976;8.342;2022-11-18T04:03:00;0.97;;;0.87;;
2850;SDS011;1433;49.976;8.342;2022-11-18T04:05:26;0.90;;;0.80;;
2850;SDS011;1433;49.976;8.342;2022-11-18T04:07:55;1.00;;;0.90;;
2850;SDS011;1433;49.976;8.342;2022-11-18T04:13:23;0.90;;;0.80;;
2850;SDS011;1433;49.976;8.342;2022-11-18T04:15:48;1.10;;;1.00;;
2850;SDS011;1433;49.976;8.342;2022-11-18T04:18:14;0.90;;;0.80;;
2850;SDS011;1433;49.976;8.342;2022-11-18T04:20:40;0.93;;;0.83;;
2850;SDS011;1433;49.976;8.342;2022-11-18T04:23:07;1.10;;;1.00;;
2850;SDS011;1433;49.976;8.342;2022-11-18T04:25:33;1.00;;;0.90;;
2850;SDS011;1433;49.976;8.342;2022-11-18T04:28:00;1.10;;;1.00;;
2850;SDS011;1433;49.976;8.342;2022-11-18T04:30:27;0.97;;;0.87;;
2850;SDS011;1433;49.976;8.342;2022-11-18T04:32:53;1.07;;;0.97;;
2850;SDS011;1433;49.976;8.342;2022-11-18T04:35:19;1.13;;;1.03;;
2850;SDS011;1433;49.976;8.342;2022-11-18T04:37:45;1.00;;;0.90;;
2850;SDS011;1433;49.976;8.342;2022-11-18T04:40:12;1.40;;;1.30;;
2850;SDS011;1433;49.976;8.342;2022-11-18T04:42:38;1.07;;;0.97;;
2850;SDS011;1433;49.976;8.342;2022-11-18T04:45:05;1.80;;;1.70;;
2850;SDS011;1433;49.976;8.342;2022-11-18T04:47:32;1.23;;;1.13;;
2850;SDS011;1433;49.976;8.342;2022-11-18T04:49:58;0.90;;;0.80;;
2850;SDS011;1433;49.976;8.342;2022-11-18T04:52:24;1.20;;;1.10;;
2850;SDS011;1433;49.976;8.342;2022-11-18T04:54:50;1.00;;;0.90;;
2850;SDS011;1433;49.976;8.342;2022-11-18T04:57:16;1.13;;;1.03;;
2850;SDS011;1433;49.976;8.342;2022-11-18T04:59:42;0.90;;;0.80;;
2850;SDS011;1433;49.976;8.342;2022-11-18T05:02:08;1.87;;;1.50;;
2850;SDS011;1433;49.976;8.342;2022-11-18T05:04:34;1.10;;;1.00;;
2850;SDS011;1433;49.976;8.342;2022-11-18T05:07:02;2.37;;;2.27;;
2850;SDS011;1433;49.976;8.342;2022-11-18T05:09:29;1.10;;;1.00;;
2850;SDS011;1433;49.976;8.342;2022-11-18T05:11:56;1.20;;;1.10;;
2850;SDS011;1433;49.976;8.342;2022-11-18T05:14:41;1.50;;;1.40;;
2850;SDS011;1433;49.976;8.342;2022-11-18T05:17:07;1.20;;;1.10;;
2850;SDS011;1433;49.976;8.342;2022-11-18T05:19:35;1.00;;;0.80;;
2850;SDS011;1433;49.976;8.342;2022-11-18T05:22:12;1.10;;;1.00;;
2850;SDS011;1433;49.976;8.342;2022-11-18T05:24:49;1.07;;;0.97;;
2850;SDS011;1433;49.976;8.342;2022-11-18T05:27:15;1.30;;;1.20;;
2850;SDS011;1433;49.976;8.342;2022-11-18T05:29:42;1.00;;;0.90;;
2850;SDS011;1433;49.976;8.342;2022-11-18T05:32:08;1.67;;;0.93;;
2850;SDS011;1433;49.976;8.342;2022-11-18T05:34:34;1.00;;;0.90;;
2850;SDS011;1433;49.976;8.342;2022-11-18T05:37:00;1.00;;;0.90;;
2850;SDS011;1433;49.976;8.342;2022-11-18T05:39:27;1.10;;;1.00;;
2850;SDS011;1433;49.976;8.342;2022-11-18T05:41:53;1.00;;;0.90;;
2850;SDS011;1433;49.976;8.342;2022-11-18T05:44:37;1.00;;;0.90;;
2850;SDS011;1433;49.976;8.342;2022-11-18T05:47:03;1.13;;;1.03;;
2850;SDS011;1433;49.976;8.342;2022-11-18T05:49:31;1.20;;;1.10;;
2850;SDS011;1433;49.976;8.342;2022-11-18T05:52:00;1.20;;;1.10;;
2850;SDS011;1433;49.976;8.342;2022-11-18T05:54:27;1.30;;;1.20;;
2850;SDS011;1433;49.976;8.342;2022-11-18T05:56:54;1.20;;;1.10;;
2850;SDS011;1433;49.976;8.342;2022-11-18T05:59:23;1.00;;;0.90;;
2850;SDS011;1433;49.976;8.342;2022-11-18T06:04:30;1.10;;;1.00;;
2850;SDS011;1433;49.976;8.342;2022-11-18T06:07:06;0.90;;;0.80;;
2850;SDS011;1433;49.976;8.342;2022-11-18T06:09:34;0.90;;;0.80;;
2850;SDS011;1433;49.976;8.342;2022-11-18T06:12:04;0.97;;;0.87;;
2850;SDS011;1433;49.976;8.342;2022-11-18T06:14:39;1.00;;;0.90;;
2850;SDS011;1433;49.976;8.342;2022-11-18T06:17:13;1.10;;;1.00;;
2850;SDS011;1433;49.976;8.342;2022-11-18T06:19:37;1.00;;;0.80;;
2850;SDS011;1433;49.976;8.342;2022-11-18T06:22:04;1.00;;;0.90;;
2850;SDS011;1433;49.976;8.342;2022-11-18T06:24:31;1.10;;;1.00;;
2850;SDS011;1433;49.976;8.342;2022-11-18T06:26:57;1.07;;;0.97;;
2850;SDS011;1433;49.976;8.342;2022-11-18T06:29:26;0.90;;;0.70;;
2850;SDS011;1433;49.976;8.342;2022-11-18T06:31:53;0.90;;;0.80;;
2850;SDS011;1433;49.976;8.342;2022-11-18T06:34:19;0.90;;;0.80;;
2850;SDS011;1433;49.976;8.342;2022-11-18T06:36:45;0.90;;;0.70;;
2850;SDS011;1433;49.976;8.342;2022-11-18T06:39:11;1.83;;;0.97;;
2850;SDS011;1433;49.976;8.342;2022-11-18T06:41:37;1.20;;;1.10;;
2850;SDS011;1433;49.976;8.342;2022-11-18T06:44:03;1.10;;;1.00;;
2850;SDS011;1433;49.976;8.342;2022-11-18T06:46:29;1.20;;;1.07;;
2850;SDS011;1433;49.976;8.342;2022-11-18T06:49:14;2.60;;;1.20;;
2850;SDS011;1433;49.976;8.342;2022-11-18T06:51:40;1.50;;;1.40;;
2850;SDS011;1433;49.976;8.342;2022-11-18T06:54:06;1.30;;;0.90;;
2850;SDS011;1433;49.976;8.342;2022-11-18T06:56:33;1.20;;;1.10;;
2850;SDS011;1433;49.976;8.342;2022-11-18T06:58:59;1.00;;;0.90;;
2850;SDS011;1433;49.976;8.342;2022-11-18T07:01:27;1.30;;;1.20;;
2850;SDS011;1433;49.976;8.342;2022-11-18T07:03:54;2.13;;;1.93;;
2850;SDS011;1433;49.976;8.342;2022-11-18T07:06:24;1.00;;;0.90;;
2850;SDS011;1433;49.976;8.342;2022-11-18T07:08:52;1.00;;;0.90;;
2850;SDS011;1433;49.976;8.342;2022-11-18T07:11:20;1.87;;;1.33;;
2850;SDS011;1433;49.976;8.342;2022-11-18T07:13:48;16.93;;;1.97;;
2850;SDS011;1433;49.976;8.342;2022-11-18T07:16:16;2.10;;;1.93;;
2850;SDS011;1433;49.976;8.342;2022-11-18T07:18:45;1.47;;;1.37;;
2850;SDS011;1433;49.976;8.342;2022-11-18T07:21:16;1.00;;;0.90;;
2850;SDS011;1433;49.976;8.342;2022-11-18T07:23:45;1.43;;;1.33;;
2850;SDS011;1433;49.976;8.342;2022-11-18T07:26:12;1.27;;;1.17;;
2850;SDS011;1433;49.976;8.342;2022-11-18T07:28:38;1.07;;;0.97;;
2850;SDS011;1433;49.976;8.342;2022-11-18T07:31:09;0.90;;;0.70;;
2850;SDS011;1433;49.976;8.342;2022-11-18T07:33:37;1.20;;;0.80;;
2850;SDS011;1433;49.976;8.342;2022-11-18T07:36:05;1.03;;;0.93;;
2850;SDS011;1433;49.976;8.342;2022-11-18T07:38:34;3.53;;;1.47;;
2850;SDS011;1433;49.976;8.342;2022-11-18T07:41:05;1.00;;;0.90;;
2850;SDS011;1433;49.976;8.342;2022-11-18T07:43:31;1.10;;;1.00;;
2850;SDS011;1433;49.976;8.342;2022-11-18T07:46:09;1.00;;;0.90;;
2850;SDS011;1433;49.976;8.342;2022-11-18T07:48:34;1.30;;;1.20;;
2850;SDS011;1433;49.976;8.342;2022-11-18T07:51:00;1.20;;;1.00;;
2850;SDS011;1433;49.976;8.342;2022-11-18T07:53:28;1.00;;;0.90;;
2850;SDS011;1433;49.976;8.342;2022-11-18T07:55:55;0.90;;;0.77;;
2850;SDS011;1433;49.976;8.342;2022-11-18T07:58:21;1.57;;;1.47;;
2850;SDS011;1433;49.976;8.342;2022-11-18T08:00:47;1.00;;;0.90;;
2850;SDS011;1433;49.976;8.342;2022-11-18T08:03:13;0.90;;;0.70;;
2850;SDS011;1433;49.976;8.342;2022-11-18T08:05:40;0.90;;;0.70;;
2850;SDS011;1433;49.976;8.342;2022-11-18T08:08:06;1.10;;;1.00;;
2850;SDS011;1433;49.976;8.342;2022-11-18T08:10:32;0.90;;;0.70;;
2850;SDS011;1433;49.976;8.342;2022-11-18T08:12:59;0.90;;;0.77;;
2850;SDS011;1433;49.976;8.342;2022-11-18T08:15:25;0.90;;;0.70;;
2850;SDS011;1433;49.976;8.342;2022-11-18T08:17:51;1.03;;;0.93;;
2850;SDS011;1433;49.976;8.342;2022-11-18T08:20:17;1.00;;;0.90;;
2850;SDS011;1433;49.976;8.342;2022-11-18T08:22:43;1.10;;;1.00;;
2850;SDS011;1433;49.976;8.342;2022-11-18T08:25:09;1.00;;;0.90;;
2850;SDS011;1433;49.976;8.342;2022-11-18T08:27:35;1.93;;;1.40;;
2850;SDS011;1433;49.976;8.342;2022-11-18T08:30:02;1.07;;;0.97;;
2850;SDS011;1433;49.976;8.342;2022-11-18T08:32:28;0.90;;;0.80;;
2850;SDS011;1433;49.976;8.342;2022-11-18T08:34:55;0.90;;;0.80;;
2850;SDS011;1433;49.976;8.342;2022-11-18T08:37:21;1.00;;;0.90;;
2850;SDS011;1433;49.976;8.342;2022-11-18T08:39:47;1.00;;;0.90;;
2850;SDS011;1433;49.976;8.342;2022-11-18T08:42:13;1.10;;;1.00;;
2850;SDS011;1433;49.976;8.342;2022-11-18T08:44:39;1.10;;;1.00;;
2850;SDS011;1433;49.976;8.342;2022-11-18T08:47:05;1.10;;;1.00;;
2850;SDS011;1433;49.976;8.342;2022-11-18T08:49:31;2.13;;;1.20;;
2850;SDS011;1433;49.976;8.342;2022-11-18T08:51:57;0.90;;;0.80;;
2850;SDS011;1433;49.976;8.342;2022-11-18T08:54:23;1.23;;;1.07;;
2850;SDS011;1433;49.976;8.342;2022-11-18T08:56:49;1.00;;;0.90;;
2850;SDS011;1433;49.976;8.342;2022-11-18T08:59:16;1.00;;;0.90;;
2850;SDS011;1433;49.976;8.342;2022-11-18T09:01:42;1.17;;;1.07;;
2850;SDS011;1433;49.976;8.342;2022-11-18T09:04:09;1.53;;;0.90;;
2850;SDS011;1433;49.976;8.342;2022-11-18T09:06:35;0.97;;;0.87;;
2850;SDS011;1433;49.976;8.342;2022-11-18T09:09:03;1.10;;;1.00;;
2850;SDS011;1433;49.976;8.342;2022-11-18T09:11:29;1.13;;;1.03;;
2850;SDS011;1433;49.976;8.342;2022-11-18T09:13:58;1.00;;;0.90;;
2850;SDS011;1433;49.976;8.342;2022-11-18T09:16:27;0.90;;;0.70;;
2850;SDS011;1433;49.976;8.342;2022-11-18T09:18:55;0.90;;;0.70;;
2850;SDS011;1433;49.976;8.342;2022-11-18T09:21:22;0.90;;;0.80;;
2850;SDS011;1433;49.976;8.342;2022-11-18T09:23:49;0.90;;;0.70;;
2850;SDS011;1433;49.976;8.342;2022-11-18T09:26:19;0.90;;;0.70;;
2850;SDS011;1433;49.976;8.342;2022-11-18T09:28:47;0.90;;;0.70;;
2850;SDS011;1433;49.976;8.342;2022-11-18T09:31:14;0.90;;;0.70;;
2850;SDS011;1433;49.976;8.342;2022-11-18T09:33:42;0.90;;;0.70;;
2850;SDS011;1433;49.976;8.342;2022-11-18T09:36:13;0.90;;;0.70;;
2850;SDS011;1433;49.976;8.342;2022-11-18T09:38:42;0.90;;;0.70;;
2850;SDS011;1433;49.976;8.342;2022-11-18T09:46:52;0.90;;;0.70;;
2850;SDS011;1433;49.976;8.342;2022-11-18T09:49:28;0.90;;;0.70;;
2850;SDS011;1433;49.976;8.342;2022-11-18T09:51:50;0.90;;;0.70;;
2850;SDS011;1433;49.976;8.342;2022-11-18T09:54:21;0.90;;;0.70;;
2850;SDS011;1433;49.976;8.342;2022-11-18T09:56:52;0.90;;;0.70;;
2850;SDS011;1433;49.976;8.342;2022-11-18T09:59:21;0.90;;;0.80;;
2850;SDS011;1433;49.976;8.342;2022-11-18T10:01:50;0.90;;;0.70;;
2850;SDS011;1433;49.976;8.342;2022-11-18T10:04:18;0.90;;;0.80;;
2850;SDS011;1433;49.976;8.342;2022-11-18T10:06:46;1.00;;;0.90;;
2850;SDS011;1433;49.976;8.342;2022-11-18T10:23:14;1.00;;;0.90;;
2850;SDS011;1433;49.976;8.342;2022-11-18T10:25:51;1.00;;;0.90;;
2850;SDS011;1433;49.976;8.342;2022-11-18T10:28:24;1.77;;;1.20;;
2850;SDS011;1433;49.976;8.342;2022-11-18T10:30:48;3.33;;;2.57;;
2850;SDS011;1433;49.976;8.342;2022-11-18T10:35:53;2.07;;;1.87;;
2850;SDS011;1433;49.976;8.342;2022-11-18T10:38:36;4.90;;;2.20;;
2850;SDS011;1433;49.976;8.342;2022-11-18T10:41:07;2.20;;;2.10;;
2850;SDS011;1433;49.976;8.342;2022-11-18T10:46:33;4.43;;;2.60;;
2850;SDS011;1433;49.976;8.342;2022-11-18T10:51:48;2.80;;;2.27;;
2850;SDS011;1433;49.976;8.342;2022-11-18T10:54:35;2.17;;;2.00;;
2850;SDS011;1433;49.976;8.342;2022-11-18T10:59:39;2.17;;;2.00;;
2850;SDS011;1433;49.976;8.342;2022-11-18T11:02:20;2.43;;;2.20;;
2850;SDS011;1433;49.976;8.342;2022-11-18T11:04:49;3.43;;;2.07;;
2850;SDS011;1433;49.976;8.342;2022-11-18T11:07:24;4.50;;;2.13;;
2850;SDS011;1433;49.976;8.342;2022-11-18T11:12:40;3.47;;;1.90;;
2850;SDS011;1433;49.976;8.342;2022-11-18T11:15:11;2.90;;;2.23;;
2850;SDS011;1433;49.976;8.342;2022-11-18T11:17:50;2.20;;;2.00;;
2850;SDS011;1433;49.976;8.342;2022-11-18T11:20:24;3.03;;;2.00;;
2850;SDS011;1433;49.976;8.342;2022-11-18T11:22:51;5.17;;;2.23;;
2850;SDS011;1433;49.976;8.342;2022-11-18T11:25:24;2.70;;;1.70;;
2850;SDS011;1433;49.976;8.342;2022-11-18T11:27:57;2.40;;;2.17;;
2850;SDS011;1433;49.976;8.342;2022-11-18T11:30:27;3.13;;;1.93;;
2850;SDS011;1433;49.976;8.342;2022-11-18T11:33:10;1.97;;;1.80;;
2850;SDS011;1433;49.976;8.342;2022-11-18T11:38:44;5.33;;;2.40;;
2850;SDS011;1433;49.976;8.342;2022-11-18T11:49:29;3.30;;;2.63;;
2850;SDS011;1433;49.976;8.342;2022-11-18T11:52:02;2.40;;;2.20;;
2850;SDS011;1433;49.976;8.342;2022-11-18T12:00:13;4.60;;;2.37;;
2850;SDS011;1433;49.976;8.342;2022-11-18T12:05:35;3.07;;;2.00;;
2850;SDS011;1433;49.976;8.342;2022-11-18T12:10:52;5.60;;;2.23;;
2850;SDS011;1433;49.976;8.342;2022-11-18T12:19:05;3.57;;;1.97;;
2850;SDS011;1433;49.976;8.342;2022-11-18T12:26:53;1.80;;;1.40;;
2850;SDS011;1433;49.976;8.342;2022-11-18T12:31:56;3.50;;;1.57;;
2850;SDS011;1433;49.976;8.342;2022-11-18T12:36:56;4.00;;;2.13;;
2850;SDS011;1433;49.976;8.342;2022-11-18T12:41:57;2.00;;;1.67;;
2850;SDS011;1433;49.976;8.342;2022-11-18T12:44:48;1.73;;;1.50;;
2850;SDS011;1433;49.976;8.342;2022-11-18T12:50:10;4.60;;;2.03;;
2850;SDS011;1433;49.976;8.342;2022-11-18T12:55:17;4.97;;;2.57;;
2850;SDS011;1433;49.976;8.342;2022-11-18T12:57:44;2.67;;;1.77;;
2850;SDS011;1433;49.976;8.342;2022-11-18T13:00:14;2.80;;;1.43;;
2850;SDS011;1433;49.976;8.342;2022-11-18T13:02:56;4.53;;;1.77;;
2850;SDS011;1433;49.976;8.342;2022-11-18T13:05:28;5.30;;;1.77;;
2850;SDS011;1433;49.976;8.342;2022-11-18T13:07:58;1.50;;;1.33;;
2850;SDS011;1433;49.976;8.342;2022-11-18T13:10:50;3.63;;;1.83;;
2850;SDS011;1433;49.976;8.342;2022-11-18T13:13:25;5.13;;;2.30;;
2850;SDS011;1433;49.976;8.342;2022-11-18T13:15:54;4.37;;;2.20;;
2850;SDS011;1433;49.976;8.342;2022-11-18T13:18:47;3.80;;;1.97;;
2850;SDS011;1433;49.976;8.342;2022-11-18T13:21:20;3.83;;;2.00;;
2850;SDS011;1433;49.976;8.342;2022-11-18T13:24:10;1.90;;;1.70;;
2850;SDS011;1433;49.976;8.342;2022-11-18T13:26:42;3.87;;;2.43;;
2850;SDS011;1433;49.976;8.342;2022-11-18T13:29:25;5.10;;;2.10;;
2850;SDS011;1433;49.976;8.342;2022-11-18T13:34:48;2.83;;;2.20;;
2850;SDS011;1433;49.976;8.342;2022-11-18T13:37:20;2.63;;;1.90;;
2850;SDS011;1433;49.976;8.342;2022-11-18T13:39:49;4.17;;;2.00;;
2850;SDS011;1433;49.976;8.342;2022-11-18T13:47:23;9.00;;;2.07;;
2850;SDS011;1433;49.976;8.342;2022-11-18T13:52:57;6.33;;;2.73;;
2850;SDS011;1433;49.976;8.342;2022-11-18T13:55:26;4.90;;;2.63;;
2850;SDS011;1433;49.976;8.342;2022-11-18T13:58:01;10.03;;;2.60;;
2850;SDS011;1433;49.976;8.342;2022-11-18T14:00:30;3.50;;;2.40;;
2850;SDS011;1433;49.976;8.342;2022-11-18T14:03:00;7.33;;;2.60;;
2850;SDS011;1433;49.976;8.342;2022-11-18T14:05:29;14.20;;;3.00;;
2850;SDS011;1433;49.976;8.342;2022-11-18T14:10:32;2.67;;;1.90;;
2850;SDS011;1433;49.976;8.342;2022-11-18T14:13:18;5.97;;;2.23;;
2850;SDS011;1433;49.976;8.342;2022-11-18T14:15:42;5.70;;;2.23;;
2850;SDS011;1433;49.976;8.342;2022-11-18T14:18:17;4.40;;;2.40;;
2850;SDS011;1433;49.976;8.342;2022-11-18T14:20:49;2.63;;;1.87;;
2850;SDS011;1433;49.976;8.342;2022-11-18T14:23:17;3.30;;;2.37;;
2850;SDS011;1433;49.976;8.342;2022-11-18T14:25:47;5.67;;;2.50;;
2850;SDS011;1433;49.976;8.342;2022-11-18T14:33:38;7.57;;;2.93;;
2850;SDS011;1433;49.976;8.342;2022-11-18T14:36:14;10.40;;;3.07;;
2850;SDS011;1433;49.976;8.342;2022-11-18T14:41:12;8.67;;;4.10;;
2850;SDS011;1433;49.976;8.342;2022-11-18T14:43:39;12.03;;;3.77;;
2850;SDS011;1433;49.976;8.342;2022-11-18T14:46:13;10.43;;;3.83;;
2850;SDS011;1433;49.976;8.342;2022-11-18T14:48:41;9.53;;;4.40;;
2850;SDS011;1433;49.976;8.342;2022-11-18T14:51:14;7.67;;;3.80;;
2850;SDS011;1433;49.976;8.342;2022-11-18T14:53:41;12.73;;;4.50;;
2850;SDS011;1433;49.976;8.342;2022-11-18T14:56:28;7.80;;;3.20;;
2850;SDS011;1433;49.976;8.342;2022-11-18T14:58:55;11.73;;;3.63;;
2850;SDS011;1433;49.976;8.342;2022-11-18T15:01:22;3.43;;;2.30;;
2850;SDS011;1433;49.976;8.342;2022-11-18T15:03:50;6.80;;;2.33;;
2850;SDS011;1433;49.976;8.342;2022-11-18T15:06:17;5.33;;;2.90;;
2850;SDS011;1433;49.976;8.342;2022-11-18T15:08:45;5.97;;;2.70;;
2850;SDS011;1433;49.976;8.342;2022-11-18T15:11:13;6.67;;;3.10;;
2850;SDS011;1433;49.976;8.342;2022-11-18T15:13:41;4.40;;;2.57;;
2850;SDS011;1433;49.976;8.342;2022-11-18T15:16:13;9.37;;;3.00;;
2850;SDS011;1433;49.976;8.342;2022-11-18T15:18:43;6.03;;;3.23;;
2850;SDS011;1433;49.976;8.342;2022-11-18T15:21:11;10.00;;;3.40;;
2850;SDS011;1433;49.976;8.342;2022-11-18T15:23:38;11.03;;;3.33;;
2850;SDS011;1433;49.976;8.342;2022-11-18T15:26:11;5.83;;;2.73;;
2850;SDS011;1433;49.976;8.342;2022-11-18T15:28:44;9.10;;;3.03;;
2850;SDS011;1433;49.976;8.342;2022-11-18T15:31:11;5.90;;;3.27;;
2850;SDS011;1433;49.976;8.342;2022-11-18T15:33:37;4.77;;;2.23;;
2850;SDS011;1433;49.976;8.342;2022-11-18T15:36:04;3.97;;;2.60;;
2850;SDS011;1433;49.976;8.342;2022-11-18T15:38:39;12.33;;;6.97;;
2850;SDS011;1433;49.976;8.342;2022-11-18T15:41:09;5.33;;;2.50;;
2850;SDS011;1433;49.976;8.342;2022-11-18T15:43:42;4.40;;;2.97;;
2850;SDS011;1433;49.976;8.342;2022-11-18T15:46:09;6.13;;;2.97;;
2850;SDS011;1433;49.976;8.342;2022-11-18T15:48:36;5.23;;;3.43;;
2850;SDS011;1433;49.976;8.342;2022-11-18T15:51:02;7.13;;;3.70;;
2850;SDS011;1433;49.976;8.342;2022-11-18T15:53:29;10.80;;;3.50;;
2850;SDS011;1433;49.976;8.342;2022-11-18T15:56:14;2.43;;;2.17;;
2850;SDS011;1433;49.976;8.342;2022-11-18T15:58:41;3.03;;;2.70;;
2850;SDS011;1433;49.976;8.342;2022-11-18T16:01:07;2.80;;;2.27;;
2850;SDS011;1433;49.976;8.342;2022-11-18T16:03:34;3.93;;;2.30;;
2850;SDS011;1433;49.976;8.342;2022-11-18T16:06:00;7.80;;;3.00;;
2850;SDS011;1433;49.976;8.342;2022-11-18T16:08:26;6.70;;;3.30;;
2850;SDS011;1433;49.976;8.342;2022-11-18T16:10:55;8.10;;;3.67;;
2850;SDS011;1433;49.976;8.342;2022-11-18T16:13:42;7.63;;;2.97;;
2850;SDS011;1433;49.976;8.342;2022-11-18T16:16:23;5.13;;;2.73;;
2850;SDS011;1433;49.976;8.342;2022-11-18T16:18:46;11.33;;;3.70;;
2850;SDS011;1433;49.976;8.342;2022-11-18T16:21:13;4.80;;;2.80;;
2850;SDS011;1433;49.976;8.342;2022-11-18T16:23:39;3.53;;;2.73;;
2850;SDS011;1433;49.976;8.342;2022-11-18T16:26:05;3.83;;;3.50;;
2850;SDS011;1433;49.976;8.342;2022-11-18T16:28:32;6.33;;;4.03;;
2850;SDS011;1433;49.976;8.342;2022-11-18T16:30:58;7.23;;;3.43;;
2850;SDS011;1433;49.976;8.342;2022-11-18T16:33:43;4.03;;;3.50;;
2850;SDS011;1433;49.976;8.342;2022-11-18T16:36:09;4.53;;;3.47;;
2850;SDS011;1433;49.976;8.342;2022-11-18T16:38:35;3.80;;;3.50;;
2850;SDS011;1433;49.976;8.342;2022-11-18T16:41:01;13.50;;;3.53;;
2850;SDS011;1433;49.976;8.342;2022-11-18T16:43:29;2.87;;;2.57;;
2850;SDS011;1433;49.976;8.342;2022-11-18T16:45:55;9.47;;;3.17;;
2850;SDS011;1433;49.976;8.342;2022-11-18T16:48:21;3.17;;;2.50;;
2850;SDS011;1433;49.976;8.342;2022-11-18T16:50:53;4.50;;;3.33;;
2850;SDS011;1433;49.976;8.342;2022-11-18T16:53:23;3.63;;;3.20;;
2850;SDS011;1433;49.976;8.342;2022-11-18T16:55:49;3.43;;;1.90;;
2850;SDS011;1433;49.976;8.342;2022-11-18T16:58:15;6.63;;;2.23;;
2850;SDS011;1433;49.976;8.342;2022-11-18T17:00:41;3.77;;;2.40;;
2850;SDS011;1433;49.976;8.342;2022-11-18T17:03:07;7.13;;;3.03;;
2850;SDS011;1433;49.976;8.342;2022-11-18T17:05:33;6.90;;;3.30;;
2850;SDS011;1433;49.976;8.342;2022-11-18T17:07:59;3.63;;;2.57;;
2850;SDS011;1433;49.976;8.342;2022-11-18T17:10:26;3.03;;;2.80;;
2850;SDS011;1433;49.976;8.342;2022-11-18T17:12:52;3.70;;;3.33;;
2850;SDS011;1433;49.976;8.342;2022-11-18T17:15:18;4.33;;;3.20;;
2850;SDS011;1433;49.976;8.342;2022-11-18T17:17:44;5.63;;;3.00;;
2850;SDS011;1433;49.976;8.342;2022-11-18T17:20:10;4.50;;;3.07;;
2850;SDS011;1433;49.976;8.342;2022-11-18T17:22:36;7.73;;;3.60;;
2850;SDS011;1433;49.976;8.342;2022-11-18T17:25:03;4.40;;;3.33;;
2850;SDS011;1433;49.976;8.342;2022-11-18T17:27:29;6.40;;;3.80;;
2850;SDS011;1433;49.976;8.342;2022-11-18T17:29:55;6.30;;;3.60;;
2850;SDS011;1433;49.976;8.342;2022-11-18T17:32:21;4.93;;;3.13;;
2850;SDS011;1433;49.976;8.342;2022-11-18T17:34:47;4.23;;;2.90;;
2850;SDS011;1433;49.976;8.342;2022-11-18T17:37:13;7.23;;;3.60;;
2850;SDS011;1433;49.976;8.342;2022-11-18T17:39:40;4.33;;;3.20;;
2850;SDS011;1433;49.976;8.342;2022-11-18T17:42:06;4.50;;;3.37;;
2850;SDS011;1433;49.976;8.342;2022-11-18T17:44:38;6.17;;;3.13;;